Time;durP1;ratioP1;P1;durP2;ratioP2;P2;SDS_P1;SDS_P2;PMS_P1;PMS_P2;Temp;Humidity;BMP_temperature;BMP_pressure;BME280_temperature;BME280_humidity;BME280_pressure;Samples;Min_cycle;Max_cycle;Signal;HPM_P1;HPM_P2
2022/10/03 00:00:02;;;;;;;19.02;4.55;;;;;;;7.85;100.00;102496.13;5061365;28;20059;-62
2022/10/03 00:02:33;;;;;;;10.90;4.38;;;;;;;7.82;100.00;102494.25;5049686;28;20048;-62
2022/10/03 00:05:26;;;;;;;10.30;4.38;;;;;;;7.81;100.00;102495.94;5055718;28;20039;-61
2022/10/03 00:07:57;;;;;;;10.15;4.78;;;;;;;7.80;100.00;102491.56;5050694;28;20041;-62
2022/10/03 00:10:34;;;;;;;9.05;4.20;;;;;;;7.77;100.00;102490.47;5058655;28;20035;-62
2022/10/03 00:13:04;;;;;;;10.52;4.20;;;;;;;7.75;100.00;102492.94;5052195;28;20074;-62
2022/10/03 00:16:14;;;;;;;9.43;3.90;;;;;;;7.73;100.00;102493.59;5055505;28;20116;-62
2022/10/03 00:18:59;;;;;;;6.80;3.40;;;;;;;7.69;100.00;102495.97;5058224;28;20020;-62
2022/10/03 00:21:51;;;;;;;9.60;4.18;;;;;;;7.66;100.00;102495.72;5048855;28;20029;-62
2022/10/03 00:24:35;;;;;;;11.80;3.75;;;;;;;7.63;100.00;102492.03;5052058;28;20051;-62
2022/10/03 00:27:42;;;;;;;13.73;4.85;;;;;;;7.61;100.00;102501.38;5060524;28;20032;-62
2022/10/03 00:30:23;;;;;;;9.48;4.15;;;;;;;7.54;100.00;102503.50;5057598;28;20020;-62
2022/10/03 00:33:07;;;;;;;;;;;;;;;7.52;100.00;102507.66;5055522;28;20435;-62
2022/10/03 00:35:44;;;;;;;7.78;3.58;;;;;;;7.50;100.00;102513.53;5055141;28;20284;-62
2022/10/03 00:38:31;;;;;;;11.32;4.05;;;;;;;7.49;100.00;102507.47;5056205;28;20036;-62
2022/10/03 00:41:28;;;;;;;8.15;4.22;;;;;;;7.47;100.00;102509.03;5052177;28;20040;-63
2022/10/03 00:44:31;;;;;;;7.78;3.60;;;;;;;7.44;100.00;102514.88;5050743;28;20465;-62
2022/10/03 00:47:00;;;;;;;11.27;3.83;;;;;;;7.40;100.00;102511.94;5052303;28;20100;-62
2022/10/03 00:50:05;;;;;;;11.00;3.60;;;;;;;7.38;100.00;102518.66;5060496;28;20548;-62
2022/10/03 00:53:04;;;;;;;9.13;3.50;;;;;;;7.35;100.00;102526.19;5049852;28;20487;-62
2022/10/03 00:55:39;;;;;;;12.38;4.03;;;;;;;7.32;100.00;102529.47;5049406;28;20029;-62
2022/10/03 00:58:24;;;;;;;10.52;3.90;;;;;;;7.28;100.00;102528.34;5049179;28;20496;-62
2022/10/03 01:00:54;;;;;;;11.07;4.70;;;;;;;7.28;100.00;102532.59;5050846;28;20029;-62
2022/10/03 01:03:48;;;;;;;11.60;4.43;;;;;;;7.26;100.00;102534.16;5049610;28;20032;-62
2022/10/03 01:06:16;;;;;;;10.07;5.18;;;;;;;7.24;100.00;102530.56;5053961;28;20025;-62
2022/10/03 01:09:05;;;;;;;9.75;4.05;;;;;;;7.19;100.00;102533.72;5061081;28;20028;-62
2022/10/03 01:11:30;;;;;;;8.90;3.60;;;;;;;7.17;100.00;102535.28;5062734;28;20023;-62
2022/10/03 01:14:14;;;;;;;12.15;4.65;;;;;;;7.16;100.00;102543.81;5053183;28;20457;-62
2022/10/03 01:16:58;;;;;;;9.65;3.80;;;;;;;7.13;100.00;102546.16;5059580;28;20477;-62
2022/10/03 01:19:50;;;;;;;8.55;3.75;;;;;;;7.12;100.00;102548.63;5060971;28;20031;-62
2022/10/03 01:22:36;;;;;;;11.70;4.82;;;;;;;7.09;100.00;102551.88;5053760;28;20080;-62
2022/10/03 01:25:26;;;;;;;10.43;4.40;;;;;;;7.08;100.00;102560.41;5046506;28;20033;-62
2022/10/03 01:31:09;;;;;;;7.45;4.45;;;;;;;7.05;100.00;102555.03;5050694;28;20268;-62
2022/10/03 01:33:43;;;;;;;12.63;5.25;;;;;;;7.04;100.00;102550.63;5049693;28;20028;-62
2022/10/03 01:36:32;;;;;;;8.68;4.38;;;;;;;7.03;100.00;102562.66;5047272;28;20476;-62
2022/10/03 01:39:08;;;;;;;12.02;4.88;;;;;;;7.01;100.00;102564.22;5056408;28;20139;-62
2022/10/03 01:41:48;;;;;;;9.55;4.85;;;;;;;6.99;100.00;102555.47;5053584;28;20041;-62
2022/10/03 01:44:39;;;;;;;12.02;5.10;;;;;;;6.99;100.00;102559.72;5049125;28;20466;-62
2022/10/03 01:47:05;;;;;;;12.30;4.63;;;;;;;6.99;100.00;102560.63;5047525;28;20144;-62
2022/10/03 01:49:58;;;;;;;8.20;4.70;;;;;;;6.99;100.00;102554.56;5056997;28;20033;-61
2022/10/03 01:52:35;;;;;;;12.80;4.65;;;;;;;6.96;100.00;102552.66;5046299;28;20025;-62
2022/10/03 01:55:19;;;;;;;9.63;5.03;;;;;;;6.97;100.00;102559.59;5055958;28;20266;-63
2022/10/03 01:57:50;;;;;;;10.55;5.20;;;;;;;6.94;100.00;102556.81;5050969;28;20028;-62
2022/10/03 02:00:19;;;;;;;10.23;4.50;;;;;;;6.95;100.00;102559.47;5055111;28;20431;-62
2022/10/03 02:03:01;;;;;;;8.05;4.40;;;;;;;6.93;100.00;102552.41;5050707;28;20040;-62
2022/10/03 02:06:09;;;;;;;8.23;4.82;;;;;;;6.90;100.00;102558.25;5050895;28;20029;-62
2022/10/03 02:08:52;;;;;;;6.63;4.35;;;;;;;6.88;100.00;102559.81;5054424;28;20031;-62
2022/10/03 02:11:52;;;;;;;10.98;4.80;;;;;;;6.88;100.00;102567.53;5061404;28;20118;-62
2022/10/03 02:14:30;;;;;;;7.57;4.65;;;;;;;6.87;100.00;102565.75;5048579;28;20049;-62
2022/10/03 02:17:17;;;;;;;7.05;4.53;;;;;;;6.86;100.00;102569.09;5056605;28;20268;-62
2022/10/03 02:20:04;;;;;;;11.38;4.10;;;;;;;6.84;100.00;102570.66;5047498;28;20024;-62
2022/10/03 02:22:29;;;;;;;6.72;4.88;;;;;;;6.82;100.00;102572.22;5046802;28;20020;-62
2022/10/03 02:25:22;;;;;;;12.18;5.15;;;;;;;6.82;100.00;102572.22;5046330;28;20420;-62
2022/10/03 02:28:07;;;;;;;8.13;4.75;;;;;;;6.80;100.00;102572.09;5047887;28;20372;-62
2022/10/03 02:31:01;;;;;;;8.07;4.32;;;;;;;6.79;100.00;102572.00;5056341;28;20025;-62
2022/10/03 02:34:02;;;;;;;10.50;5.70;;;;;;;6.78;100.00;102570.22;5051758;28;20016;-62
2022/10/03 02:37:06;;;;;;;10.23;5.03;;;;;;;6.77;100.00;102563.25;5051501;28;20024;-62
2022/10/03 02:40:07;;;;;;;11.13;5.20;;;;;;;6.76;100.00;102569.19;5050056;28;20055;-62
2022/10/03 02:43:00;;;;;;;9.88;4.68;;;;;;;6.75;100.00;102569.97;5054109;28;20488;-62
2022/10/03 02:46:05;;;;;;;8.20;4.25;;;;;;;6.72;100.00;102576.69;5057255;28;20082;-62
2022/10/03 02:48:52;;;;;;;10.38;4.93;;;;;;;6.72;100.00;102571.56;5050810;28;20036;-62
2022/10/03 02:51:38;;;;;;;8.20;4.63;;;;;;;6.75;100.00;102564.81;5058003;28;20046;-62
2022/10/03 02:54:37;;;;;;;9.38;5.65;;;;;;;6.72;100.00;102568.97;5069705;28;20472;-62
2022/10/03 02:57:33;;;;;;;9.15;4.60;;;;;;;6.71;100.00;102564.59;5070442;28;20060;-62
2022/10/03 03:00:17;;;;;;;8.10;5.05;;;;;;;6.69;100.00;102567.84;5070469;28;20020;-62
2022/10/03 03:03:13;;;;;;;11.18;5.30;;;;;;;6.67;100.00;102567.72;5070124;28;20017;-61
2022/10/03 03:06:03;;;;;;;8.00;5.70;;;;;;;6.65;100.00;102569.28;5069742;28;20029;-62
2022/10/03 03:08:57;;;;;;;12.20;5.03;;;;;;;6.65;100.00;102561.56;5069468;28;20028;-62
2022/10/03 03:11:25;;;;;;;14.43;5.60;;;;;;;6.64;100.00;102567.47;5070256;28;20102;-62
2022/10/03 03:14:09;;;;;;;9.88;5.32;;;;;;;6.63;100.00;102560.53;5070099;28;20488;-61
2022/10/03 03:16:37;;;;;;;12.20;5.40;;;;;;;6.64;100.00;102564.03;5069951;28;20032;-62
2022/10/03 03:19:15;;;;;;;9.45;5.97;;;;;;;6.63;100.00;102570.84;5070846;28;20024;-62
2022/10/03 03:22:09;;;;;;;9.50;5.30;;;;;;;6.62;100.00;102575.88;5070133;28;20024;-62
2022/10/03 03:24:47;;;;;;;11.38;6.97;;;;;;;6.59;100.00;102577.44;5069278;28;20078;-62
2022/10/03 03:27:43;;;;;;;12.63;5.40;;;;;;;6.58;100.00;102577.31;5069221;28;20412;-62
2022/10/03 03:30:19;;;;;;;10.48;5.20;;;;;;;6.57;100.00;102580.66;5069111;28;20016;-62
2022/10/03 03:32:47;;;;;;;8.50;5.68;;;;;;;6.55;100.00;102571.94;5068972;28;20047;-62
2022/10/03 03:35:32;;;;;;;10.80;5.68;;;;;;;6.54;100.00;102572.72;5068971;28;20021;-62
2022/10/03 03:38:22;;;;;;;10.65;5.43;;;;;;;6.49;100.00;102573.25;5068482;28;20044;-62
2022/10/03 03:41:12;;;;;;;10.95;5.15;;;;;;;6.47;100.00;102574.84;5074869;28;20024;-62
2022/10/03 03:43:40;;;;;;;12.55;5.60;;;;;;;6.47;100.00;102581.66;5087774;28;20032;-62
2022/10/03 03:46:44;;;;;;;12.52;5.88;;;;;;;6.47;100.00;102586.81;5089620;28;20039;-62
2022/10/03 03:49:48;;;;;;;9.75;6.05;;;;;;;6.45;100.00;102575.47;5088622;28;20115;-62
2022/10/03 03:52:31;;;;;;;9.45;5.28;;;;;;;6.44;100.00;102577.16;5087825;28;20016;-62
2022/10/03 03:55:23;;;;;;;8.15;5.38;;;;;;;6.43;100.00;102577.94;5088944;28;20016;-62
2022/10/03 03:58:05;;;;;;;7.20;5.82;;;;;;;6.42;100.00;102576.13;5089219;28;20020;-62
2022/10/03 04:00:46;;;;;;;11.15;6.22;;;;;;;6.40;100.00;102572.56;5076092;28;20032;-62
2022/10/03 04:03:32;;;;;;;11.63;6.43;;;;;;;6.38;100.00;102578.38;5089671;28;20022;-62
2022/10/03 04:06:24;;;;;;;8.50;6.20;;;;;;;6.38;100.00;102578.38;5088530;28;20038;-62
2022/10/03 04:09:01;;;;;;;8.30;6.13;;;;;;;6.37;100.00;102577.47;5089426;28;20032;-62
2022/10/03 04:12:08;;;;;;;8.77;5.43;;;;;;;6.36;100.00;102584.31;5089383;28;20110;-62
2022/10/03 04:14:58;;;;;;;14.43;5.82;;;;;;;6.35;100.00;102586.75;5069389;28;20024;-61
2022/10/03 04:20:50;;;;;;;8.32;5.95;;;;;;;6.33;100.00;102585.75;5068890;28;20109;-62
2022/10/03 04:23:34;;;;;;;7.80;5.80;;;;;;;6.34;100.00;102592.69;5068054;28;20488;-61
2022/10/03 04:26:14;;;;;;;9.50;5.82;;;;;;;6.35;100.00;102587.63;5068765;28;20032;-62
2022/10/03 04:28:57;;;;;;;10.98;6.70;;;;;;;6.38;100.00;102593.81;5056687;28;20032;-63
2022/10/03 04:31:55;;;;;;;10.23;5.70;;;;;;;6.40;100.00;102593.16;5067866;28;20043;-62
2022/10/03 04:34:49;;;;;;;15.52;6.28;;;;;;;6.45;100.00;102596.09;5050766;28;20484;-63
2022/10/03 04:37:23;;;;;;;9.45;6.18;;;;;;;6.45;100.00;102591.84;5067370;28;20037;-62
2022/10/03 04:39:54;;;;;;;8.75;6.15;;;;;;;6.45;100.00;102593.50;5067180;28;20036;-63
2022/10/03 04:42:51;;;;;;;9.68;6.20;;;;;;;6.46;100.00;102595.28;5088680;28;20073;-62
2022/10/03 04:45:26;;;;;;;9.60;5.75;;;;;;;6.45;100.00;102596.09;5088179;28;20028;-63
2022/10/03 04:48:15;;;;;;;9.77;5.88;;;;;;;6.45;100.00;102597.00;5078347;28;20032;-62
2022/10/03 04:51:06;;;;;;;10.68;6.13;;;;;;;6.43;100.00;102593.41;5064828;28;20036;-62
2022/10/03 04:53:44;;;;;;;9.57;6.07;;;;;;;6.44;100.00;102589.16;5087513;28;20107;-62
2022/10/03 04:56:25;;;;;;;9.52;5.97;;;;;;;6.42;100.00;102591.59;5087855;28;20047;-63
2022/10/03 04:59:21;;;;;;;10.23;6.07;;;;;;;6.42;100.00;102589.00;5088232;28;20080;-61
2022/10/03 05:01:54;;;;;;;10.90;5.50;;;;;;;6.41;100.00;102589.81;5077584;28;20085;-63
2022/10/03 05:04:28;;;;;;;8.25;5.90;;;;;;;6.41;100.00;102594.94;5053174;28;20144;-62
2022/10/03 05:07:13;;;;;;;10.03;6.37;;;;;;;6.43;100.00;102592.50;5050369;28;20029;-62
2022/10/03 05:09:41;;;;;;;10.48;5.90;;;;;;;6.43;100.00;102592.50;5054737;28;20565;-62
2022/10/03 05:12:17;;;;;;;10.38;5.97;;;;;;;6.41;100.00;102594.94;5049253;28;20033;-63
2022/10/03 05:14:56;;;;;;;9.43;5.38;;;;;;;6.41;100.00;102600.09;5050547;28;20099;-62
2022/10/03 05:17:39;;;;;;;9.07;5.90;;;;;;;6.41;100.00;102602.69;5048423;28;20025;-61
2022/10/03 05:20:31;;;;;;;10.73;6.13;;;;;;;6.39;100.00;102606.81;5048097;28;20111;-63
2022/10/03 05:23:13;;;;;;;8.30;5.60;;;;;;;6.37;100.00;102610.94;5049804;28;20465;-62
2022/10/03 05:26:06;;;;;;;8.30;5.38;;;;;;;6.34;100.00;102602.97;5049772;28;20032;-62
2022/10/03 05:28:34;;;;;;;11.43;6.00;;;;;;;6.31;100.00;102607.91;5060541;28;20131;-63
2022/10/03 05:31:19;;;;;;;11.80;5.63;;;;;;;6.31;100.00;102607.91;5064272;28;20021;-62
2022/10/03 05:34:10;;;;;;;7.35;5.30;;;;;;;6.30;100.00;102616.38;5059853;28;20085;-62
2022/10/03 05:37:00;;;;;;;7.00;5.00;;;;;;;6.29;100.00;102614.59;5057437;28;20024;-62
2022/10/03 05:39:45;;;;;;;10.85;5.53;;;;;;;6.28;100.00;102620.53;5051654;28;20044;-62
2022/10/03 05:42:19;;;;;;;8.88;5.80;;;;;;;6.26;100.00;102624.66;5054629;28;20052;-62
2022/10/03 05:45:05;;;;;;;9.15;5.45;;;;;;;6.26;100.00;102629.81;5066411;28;20032;-62
2022/10/03 05:47:47;;;;;;;18.27;7.60;;;;;;;6.27;100.00;102637.66;5067060;28;20016;-62
2022/10/03 05:50:56;;;;;;;9.73;5.23;;;;;;;6.27;100.00;102634.19;5066583;28;20035;-62
2022/10/03 05:53:50;;;;;;;11.35;5.20;;;;;;;6.28;100.00;102633.41;5066535;28;20020;-63
2022/10/03 05:56:24;;;;;;;10.40;5.35;;;;;;;6.29;100.00;102635.19;5062879;28;20067;-62
2022/10/03 05:59:12;;;;;;;12.70;5.82;;;;;;;6.30;100.00;102634.41;5066293;28;20434;-63
2022/10/03 06:01:59;;;;;;;10.63;5.40;;;;;;;6.32;100.00;102640.59;5059201;28;20032;-62
2022/10/03 06:04:30;;;;;;;9.80;5.78;;;;;;;6.33;100.00;102637.25;5065314;28;20035;-62
2022/10/03 06:07:16;;;;;;;7.75;5.10;;;;;;;6.33;100.00;102632.97;5065403;28;20017;-61
2022/10/03 06:10:13;;;;;;;6.82;4.95;;;;;;;6.36;100.00;102643.53;5066891;28;20035;-62
2022/10/03 06:13:04;;;;;;;11.23;5.90;;;;;;;6.37;100.00;102639.25;5066243;28;20025;-62
2022/10/03 06:15:58;;;;;;;7.93;5.05;;;;;;;6.38;100.00;102648.81;5066574;28;20079;-62
2022/10/03 06:18:35;;;;;;;8.65;5.45;;;;;;;6.43;100.00;102649.16;5057977;28;20415;-62
2022/10/03 06:21:15;;;;;;;8.02;5.07;;;;;;;6.45;100.00;102648.50;5065744;28;20396;-61
2022/10/03 06:24:04;;;;;;;10.48;6.18;;;;;;;6.52;100.00;102651.53;5066939;28;20618;-61
2022/10/03 06:26:41;;;;;;;8.52;5.35;;;;;;;6.57;100.00;102656.28;5072474;28;20058;-61
2022/10/03 06:29:38;;;;;;;11.98;6.00;;;;;;;6.59;100.00;102647.00;5086863;28;20046;-61
2022/10/03 06:32:24;;;;;;;10.18;6.15;;;;;;;6.62;100.00;102650.59;5085895;28;20111;-61
2022/10/03 06:35:17;;;;;;;9.27;4.95;;;;;;;6.63;100.00;102648.13;5087204;28;20028;-61
2022/10/03 06:38:28;;;;;;;9.67;5.40;;;;;;;6.65;100.00;102662.03;5086866;28;20031;-62
2022/10/03 06:41:05;;;;;;;12.15;5.55;;;;;;;6.68;100.00;102662.28;5063505;28;20108;-62
2022/10/03 06:43:46;;;;;;;8.35;5.10;;;;;;;6.71;100.00;102652.19;5047574;28;20111;-62
2022/10/03 06:46:27;;;;;;;12.57;6.57;;;;;;;6.73;100.00;102654.88;5047183;28;20074;-62
2022/10/03 06:49:26;;;;;;;8.98;5.85;;;;;;;6.77;100.00;102656.00;5047522;28;20028;-62
2022/10/03 06:51:54;;;;;;;11.18;5.88;;;;;;;6.80;100.00;102664.00;5046762;28;20024;-61
2022/10/03 06:54:47;;;;;;;10.65;6.15;;;;;;;6.84;100.00;102659.19;5062354;28;20056;-61
2022/10/03 06:57:28;;;;;;;9.25;5.43;;;;;;;6.88;100.00;102660.31;5048450;28;20036;-61
2022/10/03 07:00:09;;;;;;;9.77;6.75;;;;;;;6.93;100.00;102658.09;5060796;28;20532;-62
2022/10/03 07:02:49;;;;;;;14.93;6.85;;;;;;;6.97;100.00;102658.47;5053516;28;20366;-60
2022/10/03 07:05:48;;;;;;;7.78;6.13;;;;;;;7.03;100.00;102662.28;5060503;28;20036;-61
2022/10/03 07:08:44;;;;;;;10.45;5.93;;;;;;;7.09;100.00;102665.31;5058343;28;20103;-62
2022/10/03 07:11:09;;;;;;;9.10;6.13;;;;;;;7.15;100.00;102673.53;5066411;28;20040;-61
2022/10/03 07:13:41;;;;;;;9.95;6.50;;;;;;;7.23;100.00;102679.25;5056265;28;20033;-61
2022/10/03 07:16:35;;;;;;;12.60;7.80;;;;;;;7.32;100.00;102679.06;5052506;28;20037;-62
2022/10/03 07:19:48;;;;;;;9.93;6.43;;;;;;;7.41;100.00;102671.09;5063198;28;20409;-61
2022/10/03 07:22:58;;;;;;;10.40;7.03;;;;;;;7.50;100.00;102681.22;5021985;28;20034;-61
2022/10/03 07:25:39;;;;;;;14.50;10.52;;;;;;;7.91;100.00;102673.03;5027297;28;20021;-61
2022/10/03 07:28:23;;;;;;;14.95;9.13;;;;;;;8.77;100.00;102670.34;5066023;28;20048;-61
2022/10/03 07:31:02;;;;;;;12.57;8.07;;;;;;;9.26;100.00;102671.91;5065095;28;20016;-61
2022/10/03 07:33:36;;;;;;;6.97;5.60;;;;;;;9.56;100.00;102677.31;5069834;28;20036;-62
2022/10/03 07:39:26;;;;;;;6.60;5.18;;;;;;;10.11;100.00;102677.28;5069408;28;20177;-62
2022/10/03 07:41:54;;;;;;;10.52;6.65;;;;;;;10.95;100.00;102677.25;5083394;28;20412;-61
2022/10/03 07:44:52;;;;;;;8.80;5.05;;;;;;;11.77;100.00;102681.06;5088614;28;20074;-62
2022/10/03 07:47:56;;;;;;;6.60;4.72;;;;;;;12.44;100.00;102678.66;5060468;28;20372;-62
2022/10/03 07:50:40;;;;;;;5.38;3.97;;;;;;;12.43;100.00;102695.03;5053019;28;20350;-62
2022/10/03 07:53:30;;;;;;;7.03;4.20;;;;;;;12.38;100.00;102691.31;5049210;28;20036;-62
2022/10/03 07:56:08;;;;;;;9.02;4.57;;;;;;;12.30;100.00;102700.41;5057551;28;20083;-62
2022/10/03 07:58:53;;;;;;;9.68;4.97;;;;;;;12.55;100.00;102706.94;5052964;28;20035;-62
2022/10/03 08:01:40;;;;;;;8.98;5.20;;;;;;;13.03;100.00;102706.81;5063318;28;20558;-62
2022/10/03 08:04:36;;;;;;;6.68;4.40;;;;;;;13.50;100.00;102703.94;5053752;28;20041;-62
2022/10/03 08:07:25;;;;;;;7.18;4.50;;;;;;;13.96;100.00;102701.81;5054062;28;20143;-62
2022/10/03 08:09:59;;;;;;;10.02;4.50;;;;;;;14.34;100.00;102707.06;5060386;28;20032;-62
2022/10/03 08:12:27;;;;;;;8.70;3.88;;;;;;;14.49;100.00;102713.78;5074020;28;20438;-63
2022/10/03 08:15:20;;;;;;;11.65;4.68;;;;;;;14.69;100.00;102712.09;5056632;28;20025;-62
2022/10/03 08:18:09;;;;;;;8.50;3.92;;;;;;;14.95;100.00;102711.50;5054329;28;20025;-63
2022/10/03 08:20:45;;;;;;;8.05;3.55;;;;;;;15.05;100.00;102707.56;5049842;28;20052;-63
2022/10/03 08:23:41;;;;;;;7.38;3.78;;;;;;;15.20;100.00;102707.34;5047725;28;20057;-63
2022/10/03 08:26:21;;;;;;;7.40;3.95;;;;;;;15.38;100.00;102698.50;5062212;28;20611;-63
2022/10/03 08:28:58;;;;;;;5.30;3.63;;;;;;;15.48;100.00;102704.16;5051740;28;20025;-62
2022/10/03 08:31:41;;;;;;;6.82;3.85;;;;;;;15.59;100.00;102702.00;5054425;28;20028;-62
2022/10/03 08:34:06;;;;;;;8.75;3.20;;;;;;;15.72;100.00;102697.25;5065397;28;20024;-63
2022/10/03 08:37:06;;;;;;;6.13;2.97;;;;;;;15.78;99.04;102700.09;5068692;28;20031;-63
2022/10/03 08:39:55;;;;;;;6.22;3.05;;;;;;;16.08;96.35;102702.16;5068028;28;20321;-63
2022/10/03 08:42:51;;;;;;;5.95;3.63;;;;;;;16.24;97.70;102705.41;5086185;28;20442;-63
2022/10/03 08:45:16;;;;;;;5.63;3.38;;;;;;;16.40;95.68;102708.59;5088575;28;20024;-63
2022/10/03 08:48:01;;;;;;;12.25;3.50;;;;;;;16.42;95.86;102712.16;5088234;28;20323;-63
2022/10/03 08:50:44;;;;;;;8.02;4.03;;;;;;;16.56;94.01;102705.72;5088495;28;20063;-63
2022/10/03 08:53:40;;;;;;;6.53;3.08;;;;;;;16.70;92.21;102713.16;5088705;28;20054;-62
2022/10/03 08:56:13;;;;;;;6.07;3.13;;;;;;;16.72;93.34;102706.25;5088346;28;20100;-63
2022/10/03 08:59:00;;;;;;;6.07;3.38;;;;;;;16.71;94.28;102717.56;5088440;28;20349;-63
2022/10/03 09:01:39;;;;;;;9.55;3.88;;;;;;;16.65;95.62;102714.72;5087970;28;20024;-63
2022/10/03 09:04:38;;;;;;;6.88;3.20;;;;;;;16.53;95.53;102716.03;5088210;28;20221;-63
2022/10/03 09:07:28;;;;;;;8.00;3.40;;;;;;;16.30;95.72;102709.94;5076909;28;20510;-63
2022/10/03 09:10:30;;;;;;;7.80;4.05;;;;;;;16.24;97.94;102718.47;5059952;28;20024;-63
2022/10/03 09:13:19;;;;;;;7.03;3.10;;;;;;;16.26;96.54;102721.16;5087352;28;20012;-63
2022/10/03 09:16:01;;;;;;;8.70;3.25;;;;;;;16.10;97.33;102717.91;5088018;28;20016;-63
2022/10/03 09:18:56;;;;;;;5.60;2.88;;;;;;;15.85;96.82;102725.66;5088382;28;20483;-63
2022/10/03 09:21:37;;;;;;;9.77;3.67;;;;;;;15.66;99.63;102718.81;5087820;28;20503;-62
2022/10/03 09:24:21;;;;;;;6.17;2.63;;;;;;;15.63;100.00;102713.47;5087314;28;20377;-62
2022/10/03 09:27:14;;;;;;;5.63;2.60;;;;;;;15.61;100.00;102715.13;5087879;28;20487;-62
2022/10/03 09:30:06;;;;;;;5.53;2.75;;;;;;;15.59;99.71;102716.78;5087446;28;20365;-62
2022/10/03 09:32:43;;;;;;;6.78;2.25;;;;;;;15.63;99.33;102713.47;5087848;28;20039;-63
2022/10/03 09:35:45;;;;;;;5.68;2.00;;;;;;;15.63;96.87;102707.34;5087275;28;20028;-62
2022/10/03 09:38:54;;;;;;;5.13;2.00;;;;;;;15.63;98.71;102704.72;5087561;28;20024;-63
2022/10/03 09:41:57;;;;;;;5.35;1.75;;;;;;;15.60;96.41;102698.53;5087401;28;20365;-62
2022/10/03 09:44:34;;;;;;;4.28;1.48;;;;;;;15.56;94.25;102695.75;5087329;28;20028;-63
2022/10/03 09:47:27;;;;;;;7.55;1.67;;;;;;;15.51;97.13;102692.94;5087289;28;20058;-63
2022/10/03 09:50:11;;;;;;;4.05;1.40;;;;;;;15.46;95.05;102689.25;5086531;28;20031;-63
2022/10/03 09:52:49;;;;;;;3.08;1.00;;;;;;;15.43;95.31;102687.41;5087392;28;20028;-62
2022/10/03 09:55:26;;;;;;;7.18;1.52;;;;;;;15.42;93.63;102692.53;5087211;28;20032;-62
2022/10/03 09:58:10;;;;;;;7.30;1.30;;;;;;;15.40;94.53;102689.00;5087084;28;20177;-63
2022/10/03 10:00:57;;;;;;;7.40;2.08;;;;;;;15.39;95.35;102690.72;5087239;28;20050;-62
2022/10/03 10:03:42;;;;;;;3.10;1.23;;;;;;;15.39;98.21;102687.19;5087306;28;20124;-62
2022/10/03 10:06:26;;;;;;;7.13;1.80;;;;;;;15.35;99.86;102681.84;5087046;28;20497;-63
2022/10/03 10:09:22;;;;;;;6.40;1.17;;;;;;;15.31;98.91;102679.94;5087425;28;20027;-64
2022/10/03 10:12:10;;;;;;;2.80;0.93;;;;;;;15.31;98.77;102681.69;5057710;28;20075;-63
2022/10/03 10:15:00;;;;;;;5.57;1.65;;;;;;;15.34;97.92;102685.28;5050915;28;20012;-63
2022/10/03 10:17:44;;;;;;;6.97;1.38;;;;;;;15.39;99.05;102687.19;5047018;28;20033;-63
2022/10/03 10:20:30;;;;;;;6.50;1.85;;;;;;;15.42;97.61;102677.78;5057444;28;20029;-62
2022/10/03 10:23:13;;;;;;;4.22;1.45;;;;;;;15.48;98.36;102687.59;5048505;28;20025;-63
2022/10/03 10:26:00;;;;;;;6.18;1.33;;;;;;;15.47;99.51;102689.31;5057411;28;20032;-62
2022/10/03 10:28:31;;;;;;;7.65;1.40;;;;;;;15.45;97.91;102687.47;5050022;28;20040;-63
2022/10/03 10:31:30;;;;;;;10.13;1.50;;;;;;;15.54;99.67;102687.81;5048344;28;20032;-63
2022/10/03 10:34:38;;;;;;;4.00;1.00;;;;;;;15.69;97.21;102681.44;5065511;28;20029;-63
2022/10/03 10:37:24;;;;;;;6.82;1.77;;;;;;;15.84;92.74;102678.56;5066494;28;20013;-63
2022/10/03 10:40:01;;;;;;;5.18;0.90;;;;;;;15.98;90.72;102673.84;5067151;28;20403;-63
2022/10/03 10:42:48;;;;;;;6.38;1.25;;;;;;;15.94;88.66;102671.94;5085457;28;20404;-63
2022/10/03 10:45:37;;;;;;;8.63;1.40;;;;;;;15.82;89.78;102677.59;5086121;28;20036;-63
2022/10/03 10:48:08;;;;;;;7.95;1.85;;;;;;;15.66;92.20;102671.78;5086572;28;20039;-63
2022/10/03 10:51:06;;;;;;;;;;;;;;;15.65;92.10;102683.03;5087036;28;20030;-63
2022/10/03 10:53:56;;;;;;;5.20;1.25;;;;;;;15.72;92.65;102676.34;5064424;28;19915;-63
2022/10/03 10:56:59;;;;;;;7.20;1.70;;;;;;;15.85;96.47;102678.63;5090557;28;20127;-63
2022/10/03 11:00:04;;;;;;;3.22;1.20;;;;;;;16.08;91.52;102680.38;5074780;28;20044;-63
2022/10/03 11:03:17;;;;;;;9.55;2.00;;;;;;;16.29;88.12;102675.06;5090457;28;20051;-63
2022/10/03 11:06:21;;;;;;;5.40;1.58;;;;;;;16.53;86.94;102679.41;5089925;28;20036;-63
2022/10/03 11:08:59;;;;;;;6.15;1.63;;;;;;;16.63;85.00;102677.13;5090238;28;20028;-63
2022/10/03 11:11:52;;;;;;;6.22;1.98;;;;;;;16.68;87.06;102678.19;5089950;28;20110;-63
2022/10/03 11:14:39;;;;;;;4.95;1.35;;;;;;;16.65;82.70;102680.69;5074140;28;20523;-63
2022/10/03 11:17:26;;;;;;;4.43;1.20;;;;;;;16.69;81.40;102669.50;5069924;28;20127;-63
2022/10/03 11:20:16;;;;;;;6.10;1.52;;;;;;;16.83;82.48;102675.22;5069685;28;20099;-63
2022/10/03 11:23:12;;;;;;;3.42;0.98;;;;;;;17.02;81.67;102660.16;5069622;28;20094;-63
2022/10/03 11:26:05;;;;;;;6.15;2.00;;;;;;;17.19;82.11;102663.38;5069555;28;20361;-63
2022/10/03 11:28:48;;;;;;;4.65;0.95;;;;;;;17.39;84.66;102660.53;5069322;28;20115;-63
2022/10/03 11:31:41;;;;;;;5.35;1.30;;;;;;;17.54;80.14;102654.00;5069617;28;20067;-63
2022/10/03 11:34:50;;;;;;;6.65;1.75;;;;;;;17.63;78.49;102662.13;5057941;28;20051;-63
2022/10/03 11:37:53;;;;;;;5.63;1.52;;;;;;;17.48;75.76;102658.22;5060381;28;20086;-63
2022/10/03 11:40:30;;;;;;;6.65;1.42;;;;;;;17.40;77.41;102659.69;5053216;28;20024;-63
2022/10/03 11:43:22;;;;;;;5.15;1.13;;;;;;;17.57;82.06;102656.72;5060025;28;20056;-63
2022/10/03 11:45:55;;;;;;;5.25;1.27;;;;;;;17.63;77.10;102663.03;5054141;28;20795;-63
2022/10/03 11:48:29;;;;;;;5.15;1.35;;;;;;;17.57;81.50;102667.19;5058165;28;20455;-63
2022/10/03 11:51:06;;;;;;;3.50;1.20;;;;;;;17.37;76.60;102659.59;5050793;28;20024;-63
2022/10/03 11:53:52;;;;;;;3.92;1.13;;;;;;;17.31;78.04;102665.50;5049404;28;20025;-63
2022/10/03 11:56:40;;;;;;;4.72;1.25;;;;;;;17.28;75.78;102658.47;5059917;28;20043;-63
2022/10/03 11:59:32;;;;;;;4.38;1.10;;;;;;;17.46;79.32;102654.66;5053228;28;20025;-63
2022/10/03 12:02:30;;;;;;;4.97;1.40;;;;;;;17.46;75.22;102657.28;5058719;28;20036;-63
2022/10/03 12:05:10;;;;;;;5.70;1.60;;;;;;;17.66;75.84;102657.00;5055268;28;20104;-63
2022/10/03 12:10:52;;;;;;;5.45;1.45;;;;;;;17.94;76.11;102664.81;5062846;28;20097;-63
2022/10/03 12:13:28;;;;;;;4.88;1.02;;;;;;;17.97;75.64;102657.06;5070979;28;20031;-63
2022/10/03 12:15:57;;;;;;;5.10;1.48;;;;;;;17.98;71.55;102650.97;5069005;28;20031;-63
2022/10/03 12:18:41;;;;;;;7.05;1.20;;;;;;;18.00;75.45;102650.19;5068572;28;20449;-63
2022/10/03 12:21:19;;;;;;;7.22;1.67;;;;;;;17.96;72.83;102656.16;5068880;28;20400;-63
2022/10/03 12:24:18;;;;;;;5.65;1.02;;;;;;;17.80;72.15;102646.06;5057055;28;20083;-63
2022/10/03 12:27:35;;;;;;;7.68;1.15;;;;;;;17.66;73.28;102646.53;5067137;28;20028;-63
2022/10/03 12:30:08;;;;;;;7.38;1.70;;;;;;;17.60;73.04;102641.06;5068366;28;20035;-63
2022/10/03 12:32:48;;;;;;;6.55;1.25;;;;;;;17.53;72.97;102645.25;5068053;28;20381;-63
2022/10/03 12:35:32;;;;;;;4.53;1.37;;;;;;;17.45;69.69;102642.38;5068054;28;20016;-63
2022/10/03 12:38:13;;;;;;;5.85;1.55;;;;;;;17.36;67.82;102631.63;5070396;28;20033;-63
2022/10/03 12:40:43;;;;;;;3.92;1.30;;;;;;;17.38;71.42;102636.06;5072190;28;20028;-63
2022/10/03 12:43:15;;;;;;;7.65;1.58;;;;;;;17.38;72.11;102640.38;5078077;28;20123;-63
2022/10/03 12:45:48;;;;;;;5.82;1.23;;;;;;;17.39;75.67;102636.94;5051183;28;20029;-63
2022/10/03 12:48:25;;;;;;;5.68;1.40;;;;;;;17.36;76.31;102627.25;5048372;28;20505;-63
2022/10/03 12:51:14;;;;;;;4.78;1.63;;;;;;;17.29;73.74;102630.50;5048736;28;20486;-63
2022/10/03 12:53:56;;;;;;;3.03;0.90;;;;;;;17.20;76.89;102619.75;5052636;28;20045;-63
2022/10/03 12:56:47;;;;;;;5.68;1.13;;;;;;;17.13;78.02;102629.13;5061737;28;20327;-63
2022/10/03 12:59:37;;;;;;;6.63;1.77;;;;;;;17.10;79.62;102624.69;5049823;28;20025;-63